KNFE

Details ICAO KNFE
Name Fentress Nalf
Region United States
Timezone America/New_York (UTC-4.0)
Plans Departing 2
Arriving 2
Stats Elevation 16 ft / 5 m (AMSL)
Location 36.692100° -76.134600°
Runways 1
Magnetic Variation 10.920° W
Sunrise 2018-10-19 11:16:39 UTC / 2018-10-19 07:16:39 Local
Sunset 2018-10-19 22:24:37 UTC / 2018-10-19 18:24:37 Local
Advertisement - Login to hide

Runways

ID Width Length Bearing (true/mag) Surface Threshold Overrun Markings Lighting
05 174 ft / 53 m 8,067 ft / 2,459 m 39.48° / 50.40° ASPHALT 1,020 ft / 311 m 0 ft / 0 m APP EDGE THRESHOLD
23 174 ft / 53 m 8,067 ft / 2,459 m 219.49° / 230.41° ASPHALT 1,056 ft / 322 m 0 ft / 0 m APP EDGE THRESHOLD

Map

Weather


0- 5 10 15 20 25 30 35+ Temperature / °C

Clouds and Precipitation
Forecast for 2018-10-19 06:00 UTC. Updated 5 hours ago

Ground ~20,000 ft ~40,000 ft Winds

METAR

KNFE 190856Z AUTO 00000KT 10SM CLR 05/03 A3039 RMK AO2 SLP293 T00500033 55002

TAF

Not found

Frequencies

Departure 125.20 MHz
Tower 120.80 MHz
Recorded 127.15 MHz ATIS
Clearance 118.50 MHz CLNC DEL
Ground 121.90 MHz
Approach 118.90 MHz
Approach 119.60 MHz OCEANA NAS APP
Warning: Do not use this data for real-world aviation or navigation. No guarantee of current accuracy is given.